sensor_id;sensor_type;location;lat;lon;timestamp;temperature;humidity
55365;DHT22;41245;45.384;20.390;2022-07-10T00:01:55;512.20;128.00
55365;DHT22;41245;45.384;20.390;2022-07-10T00:04:21;512.10;128.00
55365;DHT22;41245;45.384;20.390;2022-07-10T00:06:46;512.10;128.00
55365;DHT22;41245;45.384;20.390;2022-07-10T00:09:15;512.00;128.00
55365;DHT22;41245;45.384;20.390;2022-07-10T00:11:42;512.00;128.00
55365;DHT22;41245;45.384;20.390;2022-07-10T00:14:08;512.00;128.00
55365;DHT22;41245;45.384;20.390;2022-07-10T00:16:34;487.30;128.00
55365;DHT22;41245;45.384;20.390;2022-07-10T00:19:00;487.20;128.00
55365;DHT22;41245;45.384;20.390;2022-07-10T00:21:26;486.90;128.00
55365;DHT22;41245;45.384;20.390;2022-07-10T00:23:52;487.10;128.00
55365;DHT22;41245;45.384;20.390;2022-07-10T00:26:17;487.10;128.00
55365;DHT22;41245;45.384;20.390;2022-07-10T00:28:43;486.90;128.00
55365;DHT22;41245;45.384;20.390;2022-07-10T00:31:09;486.60;128.00
55365;DHT22;41245;45.384;20.390;2022-07-10T00:33:36;486.80;128.00
55365;DHT22;41245;45.384;20.390;2022-07-10T00:36:06;486.70;128.00
55365;DHT22;41245;45.384;20.390;2022-07-10T00:38:32;486.70;128.00
55365;DHT22;41245;45.384;20.390;2022-07-10T00:40:58;486.70;128.00
55365;DHT22;41245;45.384;20.390;2022-07-10T00:43:24;486.60;128.00
55365;DHT22;41245;45.384;20.390;2022-07-10T00:45:50;486.50;128.00
55365;DHT22;41245;45.384;20.390;2022-07-10T00:48:16;486.50;128.00
55365;DHT22;41245;45.384;20.390;2022-07-10T00:50:43;486.40;128.00
55365;DHT22;41245;45.384;20.390;2022-07-10T00:53:10;486.40;128.00
55365;DHT22;41245;45.384;20.390;2022-07-10T00:55:36;461.70;128.00
55365;DHT22;41245;45.384;20.390;2022-07-10T00:58:04;461.70;128.00
55365;DHT22;41245;45.384;20.390;2022-07-10T01:00:31;461.60;128.00
55365;DHT22;41245;45.384;20.390;2022-07-10T01:02:58;461.60;128.00
55365;DHT22;41245;45.384;20.390;2022-07-10T01:05:23;461.60;128.00
55365;DHT22;41245;45.384;20.390;2022-07-10T01:07:49;461.50;128.00
55365;DHT22;41245;45.384;20.390;2022-07-10T01:10:15;461.50;128.00
55365;DHT22;41245;45.384;20.390;2022-07-10T01:12:41;461.50;128.00
55365;DHT22;41245;45.384;20.390;2022-07-10T01:15:07;461.50;128.00
55365;DHT22;41245;45.384;20.390;2022-07-10T01:17:34;461.50;128.00
55365;DHT22;41245;45.384;20.390;2022-07-10T01:20:07;461.40;128.00
55365;DHT22;41245;45.384;20.390;2022-07-10T01:22:34;461.40;128.00
55365;DHT22;41245;45.384;20.390;2022-07-10T01:25:01;461.40;128.00
55365;DHT22;41245;45.384;20.390;2022-07-10T01:27:26;461.30;128.00
55365;DHT22;41245;45.384;20.390;2022-07-10T01:29:53;461.30;128.00
55365;DHT22;41245;45.384;20.390;2022-07-10T01:32:19;461.30;128.00
55365;DHT22;41245;45.384;20.390;2022-07-10T01:34:45;461.50;128.00
55365;DHT22;41245;45.384;20.390;2022-07-10T01:37:12;461.30;128.00
55365;DHT22;41245;45.384;20.390;2022-07-10T01:39:38;461.30;128.00
55365;DHT22;41245;45.384;20.390;2022-07-10T01:42:04;461.30;128.00
55365;DHT22;41245;45.384;20.390;2022-07-10T01:44:30;461.30;128.00
55365;DHT22;41245;45.384;20.390;2022-07-10T01:46:56;461.30;128.00
55365;DHT22;41245;45.384;20.390;2022-07-10T01:49:21;461.30;128.00
55365;DHT22;41245;45.384;20.390;2022-07-10T01:51:47;461.30;128.00
55365;DHT22;41245;45.384;20.390;2022-07-10T01:54:13;461.30;128.00
55365;DHT22;41245;45.384;20.390;2022-07-10T01:56:38;461.30;128.00
55365;DHT22;41245;45.384;20.390;2022-07-10T01:59:04;461.30;128.00
55365;DHT22;41245;45.384;20.390;2022-07-10T02:01:31;461.30;128.00
55365;DHT22;41245;45.384;20.390;2022-07-10T02:03:57;461.20;128.00
55365;DHT22;41245;45.384;20.390;2022-07-10T02:06:41;461.30;128.00
55365;DHT22;41245;45.384;20.390;2022-07-10T02:09:07;461.30;128.00
55365;DHT22;41245;45.384;20.390;2022-07-10T02:11:32;461.20;128.00
55365;DHT22;41245;45.384;20.390;2022-07-10T02:13:58;461.30;128.00
55365;DHT22;41245;45.384;20.390;2022-07-10T02:16:24;461.20;128.00
55365;DHT22;41245;45.384;20.390;2022-07-10T02:18:49;461.20;128.00
55365;DHT22;41245;45.384;20.390;2022-07-10T02:21:15;461.20;128.00
55365;DHT22;41245;45.384;20.390;2022-07-10T02:23:41;461.20;128.00
55365;DHT22;41245;45.384;20.390;2022-07-10T02:26:07;461.30;128.00
55365;DHT22;41245;45.384;20.390;2022-07-10T02:28:34;486.50;128.00
55365;DHT22;41245;45.384;20.390;2022-07-10T02:30:59;461.20;128.00
55365;DHT22;41245;45.384;20.390;2022-07-10T02:33:25;461.20;128.00
55365;DHT22;41245;45.384;20.390;2022-07-10T02:35:51;461.10;128.00
55365;DHT22;41245;45.384;20.390;2022-07-10T02:38:17;461.10;128.00
55365;DHT22;41245;45.384;20.390;2022-07-10T02:40:43;461.10;128.00
55365;DHT22;41245;45.384;20.390;2022-07-10T02:43:08;461.10;128.00
55365;DHT22;41245;45.384;20.390;2022-07-10T02:45:34;461.10;128.00
55365;DHT22;41245;45.384;20.390;2022-07-10T02:48:00;461.10;128.00
55365;DHT22;41245;45.384;20.390;2022-07-10T02:50:25;461.10;128.00
55365;DHT22;41245;45.384;20.390;2022-07-10T02:52:51;461.00;128.00
55365;DHT22;41245;45.384;20.390;2022-07-10T02:55:17;461.00;128.00
55365;DHT22;41245;45.384;20.390;2022-07-10T02:57:43;461.00;128.00
55365;DHT22;41245;45.384;20.390;2022-07-10T03:00:09;460.90;128.00
55365;DHT22;41245;45.384;20.390;2022-07-10T03:02:35;460.90;128.00
55365;DHT22;41245;45.384;20.390;2022-07-10T03:05:00;460.90;128.00
55365;DHT22;41245;45.384;20.390;2022-07-10T03:07:26;460.90;128.00
55365;DHT22;41245;45.384;20.390;2022-07-10T03:09:51;460.80;128.00
55365;DHT22;41245;45.384;20.390;2022-07-10T03:12:18;461.40;128.00
55365;DHT22;41245;45.384;20.390;2022-07-10T03:14:43;460.80;128.00
55365;DHT22;41245;45.384;20.390;2022-07-10T03:17:09;460.80;128.00
55365;DHT22;41245;45.384;20.390;2022-07-10T03:19:35;460.80;128.00
55365;DHT22;41245;45.384;20.390;2022-07-10T03:22:00;460.80;128.00
55365;DHT22;41245;45.384;20.390;2022-07-10T03:24:26;460.80;128.00
55365;DHT22;41245;45.384;20.390;2022-07-10T03:26:51;460.80;128.00
55365;DHT22;41245;45.384;20.390;2022-07-10T03:29:17;460.80;128.00
55365;DHT22;41245;45.384;20.390;2022-07-10T03:31:43;436.10;128.00
55365;DHT22;41245;45.384;20.390;2022-07-10T03:34:09;436.10;128.00
55365;DHT22;41245;45.384;20.390;2022-07-10T03:36:35;436.10;128.00
55365;DHT22;41245;45.384;20.390;2022-07-10T03:39:01;460.80;128.00
55365;DHT22;41245;45.384;20.390;2022-07-10T03:41:26;460.80;128.00
55365;DHT22;41245;45.384;20.390;2022-07-10T03:43:52;460.80;128.00
55365;DHT22;41245;45.384;20.390;2022-07-10T03:46:18;460.80;128.00
55365;DHT22;41245;45.384;20.390;2022-07-10T03:48:43;460.90;128.00
55365;DHT22;41245;45.384;20.390;2022-07-10T03:51:09;461.00;128.00
55365;DHT22;41245;45.384;20.390;2022-07-10T03:53:35;461.00;128.00
55365;DHT22;41245;45.384;20.390;2022-07-10T03:56:01;461.10;128.00
55365;DHT22;41245;45.384;20.390;2022-07-10T03:58:27;486.70;128.00
55365;DHT22;41245;45.384;20.390;2022-07-10T04:00:53;512.10;128.00
55365;DHT22;41245;45.384;20.390;2022-07-10T04:03:18;512.10;128.00
55365;DHT22;41245;45.384;20.390;2022-07-10T04:05:44;538.40;128.00
55365;DHT22;41245;45.384;20.390;2022-07-10T04:08:10;589.40;128.00
55365;DHT22;41245;45.384;20.390;2022-07-10T04:10:36;615.30;128.00
55365;DHT22;41245;45.384;20.390;2022-07-10T04:13:02;666.10;153.60
55365;DHT22;41245;45.384;20.390;2022-07-10T04:17:54;717.30;179.20
55365;DHT22;41245;45.384;20.390;2022-07-10T04:39:53;563.30;128.00
55365;DHT22;41245;45.384;20.390;2022-07-10T04:42:19;538.50;128.00
55365;DHT22;41245;45.384;20.390;2022-07-10T04:44:44;563.90;128.00
55365;DHT22;41245;45.384;20.390;2022-07-10T04:59:21;666.20;153.60
55365;DHT22;41245;45.384;20.390;2022-07-10T05:01:47;665.70;153.60
55365;DHT22;41245;45.384;20.390;2022-07-10T05:11:31;615.20;128.00
55365;DHT22;41245;45.384;20.390;2022-07-10T05:16:23;589.30;128.00
55365;DHT22;41245;45.384;20.390;2022-07-10T05:18:49;588.90;128.00
55365;DHT22;41245;45.384;20.390;2022-07-10T05:21:15;564.00;128.00
55365;DHT22;41245;45.384;20.390;2022-07-10T05:23:40;563.90;128.00
55365;DHT22;41245;45.384;20.390;2022-07-10T05:26:06;563.70;128.00
55365;DHT22;41245;45.384;20.390;2022-07-10T05:28:32;563.90;128.00
55365;DHT22;41245;45.384;20.390;2022-07-10T05:30:58;564.10;128.00
55365;DHT22;41245;45.384;20.390;2022-07-10T05:33:24;589.00;128.00
55365;DHT22;41245;45.384;20.390;2022-07-10T05:35:52;589.10;128.00
55365;DHT22;41245;45.384;20.390;2022-07-10T05:38:17;589.20;128.00
55365;DHT22;41245;45.384;20.390;2022-07-10T05:40:43;589.20;128.00
55365;DHT22;41245;45.384;20.390;2022-07-10T05:43:09;589.30;128.00
55365;DHT22;41245;45.384;20.390;2022-07-10T05:45:35;589.50;128.00
55365;DHT22;41245;45.384;20.390;2022-07-10T05:48:01;614.50;128.00
55365;DHT22;41245;45.384;20.390;2022-07-10T05:50:26;615.10;128.00
55365;DHT22;41245;45.384;20.390;2022-07-10T05:52:52;640.20;128.00
55365;DHT22;41245;45.384;20.390;2022-07-10T05:55:18;691.80;153.60
55365;DHT22;41245;45.384;20.390;2022-07-10T05:57:44;665.90;153.60
55365;DHT22;41245;45.384;20.390;2022-07-10T06:00:10;665.70;153.60
55365;DHT22;41245;45.384;20.390;2022-07-10T06:02:36;665.90;153.60
55365;DHT22;41245;45.384;20.390;2022-07-10T06:05:02;666.10;153.60
55365;DHT22;41245;45.384;20.390;2022-07-10T06:07:27;742.60;204.80
55365;DHT22;41245;45.384;20.390;2022-07-10T06:09:54;717.30;179.20
55365;DHT22;41245;45.384;20.390;2022-07-10T06:12:20;716.80;179.20
55365;DHT22;41245;45.384;20.390;2022-07-10T06:14:46;666.50;153.60
55365;DHT22;41245;45.384;20.390;2022-07-10T06:17:11;665.80;153.60
55365;DHT22;41245;45.384;20.390;2022-07-10T06:19:37;665.70;153.60
55365;DHT22;41245;45.384;20.390;2022-07-10T06:32:06;717.50;179.20
55365;DHT22;41245;45.384;20.390;2022-07-10T06:34:32;743.30;204.80
55365;DHT22;41245;45.384;20.390;2022-07-10T06:44:16;717.20;179.20
55365;DHT22;41245;45.384;20.390;2022-07-10T07:04:04;666.00;153.60
55365;DHT22;41245;45.384;20.390;2022-07-10T07:06:30;665.90;153.60
55365;DHT22;41245;45.384;20.390;2022-07-10T16:13:33;640.70;128.00
55365;DHT22;41245;45.384;20.390;2022-07-10T17:05:00;691.40;153.60
55365;DHT22;41245;45.384;20.390;2022-07-10T17:07:26;691.20;153.60
55365;DHT22;41245;45.384;20.390;2022-07-10T17:09:52;691.30;153.60
55365;DHT22;41245;45.384;20.390;2022-07-10T17:12:17;691.20;153.60
55365;DHT22;41245;45.384;20.390;2022-07-10T17:14:43;666.10;153.60
55365;DHT22;41245;45.384;20.390;2022-07-10T17:17:09;666.10;153.60
55365;DHT22;41245;45.384;20.390;2022-07-10T17:19:34;666.10;153.60
55365;DHT22;41245;45.384;20.390;2022-07-10T17:22:00;666.10;153.60
55365;DHT22;41245;45.384;20.390;2022-07-10T17:24:27;666.10;153.60
55365;DHT22;41245;45.384;20.390;2022-07-10T17:26:53;665.70;153.60
55365;DHT22;41245;45.384;20.390;2022-07-10T17:29:19;665.70;153.60
55365;DHT22;41245;45.384;20.390;2022-07-10T17:31:45;665.90;153.60
55365;DHT22;41245;45.384;20.390;2022-07-10T17:34:14;665.60;153.60
55365;DHT22;41245;45.384;20.390;2022-07-10T17:36:40;640.80;128.00
55365;DHT22;41245;45.384;20.390;2022-07-10T17:39:06;640.70;128.00
55365;DHT22;41245;45.384;20.390;2022-07-10T17:41:35;640.50;128.00
55365;DHT22;41245;45.384;20.390;2022-07-10T17:44:01;640.30;128.00
55365;DHT22;41245;45.384;20.390;2022-07-10T17:51:20;615.20;128.00
55365;DHT22;41245;45.384;20.390;2022-07-10T17:53:48;614.90;128.00
55365;DHT22;41245;45.384;20.390;2022-07-10T17:56:15;614.70;128.00
55365;DHT22;41245;45.384;20.390;2022-07-10T17:58:40;615.30;128.00
55365;DHT22;41245;45.384;20.390;2022-07-10T18:01:06;614.40;128.00
55365;DHT22;41245;45.384;20.390;2022-07-10T18:03:32;589.60;128.00
55365;DHT22;41245;45.384;20.390;2022-07-10T18:05:58;589.60;128.00
55365;DHT22;41245;45.384;20.390;2022-07-10T18:08:24;589.50;128.00
55365;DHT22;41245;45.384;20.390;2022-07-10T18:10:51;589.40;128.00
55365;DHT22;41245;45.384;20.390;2022-07-10T18:13:17;589.10;128.00
55365;DHT22;41245;45.384;20.390;2022-07-10T18:15:43;589.10;128.00
55365;DHT22;41245;45.384;20.390;2022-07-10T18:18:09;589.10;128.00
55365;DHT22;41245;45.384;20.390;2022-07-10T18:20:36;589.00;128.00
55365;DHT22;41245;45.384;20.390;2022-07-10T18:23:03;589.00;128.00
55365;DHT22;41245;45.384;20.390;2022-07-10T18:25:30;589.30;128.00
55365;DHT22;41245;45.384;20.390;2022-07-10T18:27:56;589.50;128.00
55365;DHT22;41245;45.384;20.390;2022-07-10T18:30:23;589.70;128.00
55365;DHT22;41245;45.384;20.390;2022-07-10T18:32:49;589.40;128.00
55365;DHT22;41245;45.384;20.390;2022-07-10T18:35:34;589.20;128.00
55365;DHT22;41245;45.384;20.390;2022-07-10T18:37:59;588.90;128.00
55365;DHT22;41245;45.384;20.390;2022-07-10T18:40:25;564.10;128.00
55365;DHT22;41245;45.384;20.390;2022-07-10T18:42:51;564.00;128.00
55365;DHT22;41245;45.384;20.390;2022-07-10T18:45:17;564.00;128.00
55365;DHT22;41245;45.384;20.390;2022-07-10T18:47:43;564.00;128.00
55365;DHT22;41245;45.384;20.390;2022-07-10T18:50:09;564.10;128.00
55365;DHT22;41245;45.384;20.390;2022-07-10T18:52:35;564.00;128.00
55365;DHT22;41245;45.384;20.390;2022-07-10T18:55:00;564.00;128.00
55365;DHT22;41245;45.384;20.390;2022-07-10T18:57:26;563.90;128.00
55365;DHT22;41245;45.384;20.390;2022-07-10T18:59:52;563.90;128.00
55365;DHT22;41245;45.384;20.390;2022-07-10T19:02:17;563.90;128.00
55365;DHT22;41245;45.384;20.390;2022-07-10T19:04:43;563.80;128.00
55365;DHT22;41245;45.384;20.390;2022-07-10T19:07:09;563.60;128.00
55365;DHT22;41245;45.384;20.390;2022-07-10T19:09:35;563.50;128.00
55365;DHT22;41245;45.384;20.390;2022-07-10T19:12:00;563.50;128.00
55365;DHT22;41245;45.384;20.390;2022-07-10T19:14:27;563.30;128.00
55365;DHT22;41245;45.384;20.390;2022-07-10T19:16:53;563.40;128.00
55365;DHT22;41245;45.384;20.390;2022-07-10T19:19:18;563.40;128.00
55365;DHT22;41245;45.384;20.390;2022-07-10T19:21:44;563.30;128.00
55365;DHT22;41245;45.384;20.390;2022-07-10T19:24:10;563.30;128.00
55365;DHT22;41245;45.384;20.390;2022-07-10T19:26:38;563.30;128.00
55365;DHT22;41245;45.384;20.390;2022-07-10T19:29:03;563.20;128.00
55365;DHT22;41245;45.384;20.390;2022-07-10T19:31:29;563.20;128.00
55365;DHT22;41245;45.384;20.390;2022-07-10T19:33:55;563.20;128.00
55365;DHT22;41245;45.384;20.390;2022-07-10T19:36:21;563.20;128.00
55365;DHT22;41245;45.384;20.390;2022-07-10T19:38:47;563.20;128.00
55365;DHT22;41245;45.384;20.390;2022-07-10T19:41:13;538.50;128.00
55365;DHT22;41245;45.384;20.390;2022-07-10T19:43:39;538.40;128.00
55365;DHT22;41245;45.384;20.390;2022-07-10T19:46:06;538.40;128.00
55365;DHT22;41245;45.384;20.390;2022-07-10T19:48:35;538.20;128.00
55365;DHT22;41245;45.384;20.390;2022-07-10T19:51:02;538.20;128.00
55365;DHT22;41245;45.384;20.390;2022-07-10T19:53:27;538.20;128.00
55365;DHT22;41245;45.384;20.390;2022-07-10T19:55:53;538.10;128.00
55365;DHT22;41245;45.384;20.390;2022-07-10T19:58:19;538.10;128.00
55365;DHT22;41245;45.384;20.390;2022-07-10T20:00:44;538.00;128.00
55365;DHT22;41245;45.384;20.390;2022-07-10T20:03:10;538.00;128.00
55365;DHT22;41245;45.384;20.390;2022-07-10T20:05:36;538.00;128.00
55365;DHT22;41245;45.384;20.390;2022-07-10T20:08:03;537.90;128.00
55365;DHT22;41245;45.384;20.390;2022-07-10T20:10:29;537.70;128.00
55365;DHT22;41245;45.384;20.390;2022-07-10T20:12:56;537.90;128.00
55365;DHT22;41245;45.384;20.390;2022-07-10T20:15:22;537.80;128.00
55365;DHT22;41245;45.384;20.390;2022-07-10T20:17:48;537.80;128.00
55365;DHT22;41245;45.384;20.390;2022-07-10T20:20:14;537.80;128.00
55365;DHT22;41245;45.384;20.390;2022-07-10T20:22:40;537.70;128.00
55365;DHT22;41245;45.384;20.390;2022-07-10T20:25:06;537.70;128.00
55365;DHT22;41245;45.384;20.390;2022-07-10T20:27:33;537.60;128.00
55365;DHT22;41245;45.384;20.390;2022-07-10T20:29:59;537.60;128.00
55365;DHT22;41245;45.384;20.390;2022-07-10T20:32:25;512.90;128.00
55365;DHT22;41245;45.384;20.390;2022-07-10T20:34:50;512.80;128.00
55365;DHT22;41245;45.384;20.390;2022-07-10T20:37:16;512.70;128.00
55365;DHT22;41245;45.384;20.390;2022-07-10T20:40:01;512.70;128.00
55365;DHT22;41245;45.384;20.390;2022-07-10T20:42:27;512.60;128.00
55365;DHT22;41245;45.384;20.390;2022-07-10T20:44:53;512.50;128.00
55365;DHT22;41245;45.384;20.390;2022-07-10T20:47:19;512.50;128.00
55365;DHT22;41245;45.384;20.390;2022-07-10T20:49:45;512.50;128.00
55365;DHT22;41245;45.384;20.390;2022-07-10T20:52:11;512.40;128.00
55365;DHT22;41245;45.384;20.390;2022-07-10T20:54:37;512.30;128.00
55365;DHT22;41245;45.384;20.390;2022-07-10T20:57:03;512.30;128.00
55365;DHT22;41245;45.384;20.390;2022-07-10T20:59:29;512.20;128.00
55365;DHT22;41245;45.384;20.390;2022-07-10T21:01:54;512.10;128.00
55365;DHT22;41245;45.384;20.390;2022-07-10T21:04:20;512.10;128.00
55365;DHT22;41245;45.384;20.390;2022-07-10T21:06:46;512.10;128.00
55365;DHT22;41245;45.384;20.390;2022-07-10T21:09:12;512.10;128.00
55365;DHT22;41245;45.384;20.390;2022-07-10T21:11:38;512.10;128.00
55365;DHT22;41245;45.384;20.390;2022-07-10T21:14:04;512.10;128.00
55365;DHT22;41245;45.384;20.390;2022-07-10T21:16:29;512.10;128.00
55365;DHT22;41245;45.384;20.390;2022-07-10T21:18:55;512.10;128.00
55365;DHT22;41245;45.384;20.390;2022-07-10T21:21:22;512.10;128.00
55365;DHT22;41245;45.384;20.390;2022-07-10T21:23:48;512.00;128.00
55365;DHT22;41245;45.384;20.390;2022-07-10T21:26:14;512.10;128.00
55365;DHT22;41245;45.384;20.390;2022-07-10T21:28:39;512.00;128.00
55365;DHT22;41245;45.384;20.390;2022-07-10T21:31:06;512.00;128.00
55365;DHT22;41245;45.384;20.390;2022-07-10T21:33:33;512.00;128.00
55365;DHT22;41245;45.384;20.390;2022-07-10T21:35:59;487.20;128.00
55365;DHT22;41245;45.384;20.390;2022-07-10T21:38:25;487.10;128.00
55365;DHT22;41245;45.384;20.390;2022-07-10T21:40:51;487.10;128.00
55365;DHT22;41245;45.384;20.390;2022-07-10T21:43:16;487.00;128.00
55365;DHT22;41245;45.384;20.390;2022-07-10T21:45:42;487.00;128.00
55365;DHT22;41245;45.384;20.390;2022-07-10T21:48:08;486.90;128.00
55365;DHT22;41245;45.384;20.390;2022-07-10T21:50:34;486.80;128.00
55365;DHT22;41245;45.384;20.390;2022-07-10T21:53:00;486.80;128.00
55365;DHT22;41245;45.384;20.390;2022-07-10T21:55:27;486.70;128.00
55365;DHT22;41245;45.384;20.390;2022-07-10T21:57:53;486.70;128.00
55365;DHT22;41245;45.384;20.390;2022-07-10T22:00:19;486.70;128.00
55365;DHT22;41245;45.384;20.390;2022-07-10T22:02:46;486.70;128.00
55365;DHT22;41245;45.384;20.390;2022-07-10T22:05:12;461.70;128.00
55365;DHT22;41245;45.384;20.390;2022-07-10T22:07:38;486.70;128.00
55365;DHT22;41245;45.384;20.390;2022-07-10T22:10:04;486.60;128.00
55365;DHT22;41245;45.384;20.390;2022-07-10T22:12:31;486.50;128.00
55365;DHT22;41245;45.384;20.390;2022-07-10T22:14:57;486.50;128.00
55365;DHT22;41245;45.384;20.390;2022-07-10T22:17:23;486.50;128.00
55365;DHT22;41245;45.384;20.390;2022-07-10T22:19:49;486.40;128.00
55365;DHT22;41245;45.384;20.390;2022-07-10T22:22:15;486.40;128.00
55365;DHT22;41245;45.384;20.390;2022-07-10T22:24:41;486.40;128.00
55365;DHT22;41245;45.384;20.390;2022-07-10T22:27:07;461.70;128.00
55365;DHT22;41245;45.384;20.390;2022-07-10T22:29:34;486.40;128.00
55365;DHT22;41245;45.384;20.390;2022-07-10T22:32:00;486.40;128.00
55365;DHT22;41245;45.384;20.390;2022-07-10T22:34:26;486.40;128.00
55365;DHT22;41245;45.384;20.390;2022-07-10T22:36:52;486.40;128.00
55365;DHT22;41245;45.384;20.390;2022-07-10T22:39:17;486.40;128.00
55365;DHT22;41245;45.384;20.390;2022-07-10T22:41:43;461.70;128.00
55365;DHT22;41245;45.384;20.390;2022-07-10T22:44:09;461.70;128.00
55365;DHT22;41245;45.384;20.390;2022-07-10T22:46:35;486.40;128.00
55365;DHT22;41245;45.384;20.390;2022-07-10T22:49:00;461.70;128.00
55365;DHT22;41245;45.384;20.390;2022-07-10T22:51:26;461.60;128.00
55365;DHT22;41245;45.384;20.390;2022-07-10T22:53:52;461.60;128.00
55365;DHT22;41245;45.384;20.390;2022-07-10T22:56:18;461.50;128.00
55365;DHT22;41245;45.384;20.390;2022-07-10T22:58:43;461.50;128.00
55365;DHT22;41245;45.384;20.390;2022-07-10T23:01:10;461.50;128.00
55365;DHT22;41245;45.384;20.390;2022-07-10T23:03:37;461.50;128.00
55365;DHT22;41245;45.384;20.390;2022-07-10T23:06:03;461.50;128.00
55365;DHT22;41245;45.384;20.390;2022-07-10T23:08:29;461.40;128.00
55365;DHT22;41245;45.384;20.390;2022-07-10T23:10:55;461.30;128.00
55365;DHT22;41245;45.384;20.390;2022-07-10T23:13:21;461.30;128.00
55365;DHT22;41245;45.384;20.390;2022-07-10T23:15:47;461.20;128.00
55365;DHT22;41245;45.384;20.390;2022-07-10T23:18:13;461.20;128.00
55365;DHT22;41245;45.384;20.390;2022-07-10T23:20:39;461.10;128.00
55365;DHT22;41245;45.384;20.390;2022-07-10T23:23:05;461.10;128.00
55365;DHT22;41245;45.384;20.390;2022-07-10T23:25:31;461.10;128.00
55365;DHT22;41245;45.384;20.390;2022-07-10T23:27:56;461.10;128.00
55365;DHT22;41245;45.384;20.390;2022-07-10T23:30:22;461.10;128.00
55365;DHT22;41245;45.384;20.390;2022-07-10T23:32:48;461.10;128.00
55365;DHT22;41245;45.384;20.390;2022-07-10T23:35:14;461.10;128.00
55365;DHT22;41245;45.384;20.390;2022-07-10T23:37:39;461.00;128.00
55365;DHT22;41245;45.384;20.390;2022-07-10T23:40:05;461.00;128.00
55365;DHT22;41245;45.384;20.390;2022-07-10T23:42:31;460.90;128.00
55365;DHT22;41245;45.384;20.390;2022-07-10T23:45:00;460.90;128.00
55365;DHT22;41245;45.384;20.390;2022-07-10T23:47:26;460.80;128.00
55365;DHT22;41245;45.384;20.390;2022-07-10T23:49:52;460.90;128.00
55365;DHT22;41245;45.384;20.390;2022-07-10T23:52:36;460.80;128.00
55365;DHT22;41245;45.384;20.390;2022-07-10T23:55:02;460.80;128.00
55365;DHT22;41245;45.384;20.390;2022-07-10T23:57:29;460.80;128.00
55365;DHT22;41245;45.384;20.390;2022-07-10T23:59:54;460.80;128.00
